AirNav   Everest Fuels
 
 848 users online  

TT00 Tree Top Air Airport
Weimar, Texas, USA

GOING TO WEIMAR?


FAA INFORMATION EFFECTIVE 10 SEPTEMBER 2020

Location

FAA Identifier: TT00
Lat/Long: 29-38-48.0000N 096-43-46.0000W
29-38.800000N 096-43.766667W
29.6466667,-96.7294444
(estimated)
Elevation: 360 ft. / 110 m (estimated)
From city: 4 miles SE of WEIMAR, TX
Time zone: UTC -5 (UTC -6 during Standard Time)
Zip code: 78962

Airport Operations

Airport use: Private use. Permission required prior to landing
Activation date: 04/2018
Control tower: no
ARTCC: HOUSTON CENTER
FSS: MONTGOMERY COUNTY FLIGHT SERVICE STATION
Attendance: 
Wind indicator: yes
Segmented circle: no

Airport Communications

WX AWOS-3 at 66R (11 nm E): 123.875 (979-732-2514)
WX AWOS-3 at 3T5 (19 nm NW): 124.175 (979-242-5777)

Nearby radio navigation aids

VOR radial/distance  VOR name  Freq  Var
IDUr197/20.5INDUSTRY VORTAC110.2008E
ELAr259/21.5EAGLE LAKE VOR/DME116.4008E

 
NDB name  Hdg/Dist  Freq  Var  ID
WHARTON305/38.324503EARM .- .-. --

Airport Services

Runway Information

Runway 1/19

Dimensions: 1762 x 80 ft. / 537 x 24 m
Surface: turf
RUNWAY 1  RUNWAY 19
Traffic pattern: leftleft

Airport Ownership and Management from official FAA records

Ownership: Privately-owned
Owner: WAYNE THURMAN
1364 CR 222
WEIMER, TX 78962
Phone 713-249-6654
Manager: WAYNE THURMAN
1364 CR 222
WEIMER, TX 78962
Phone 713-249-6654
WET11934@YAHOO.COM

Additional Remarks

FOR CD CTC HOUSTON ARTCC AT 281-230-5622.

Instrument Procedures

There are no published instrument procedures at TT00.

Some nearby airports with instrument procedures:

3T5 - Fayette Regional Air Center Airport (19 nm NW)
KELA - Eagle Lake Airport (21 nm E)
T85 - Yoakum Municipal Airport (29 nm SW)
KGYB - Giddings-Lee County Airport (34 nm NW)
KARM - Wharton Regional Airport (38 nm SE)
 
Loc | Ops | Rwys | IFR | FBO | Links
Com | Nav | Svcs | Stats | Notes
Aerial photo
No photo
 
Airport distance calculator
Flying to Tree Top Air Airport? Find the distance to fly.

From to TT00

Sunrise and sunset
Times for 21-Sep-2020
 Local
(UTC-5)
 Zulu
(UTC)
Morning civil twilight06:5211:52
Sunrise07:1612:16
Sunset19:2300:23
Evening civil twilight19:4700:47

Current date and time
Zulu (UTC)  22-Sep-2020 04:03:07
Local (UTC-5)  21-Sep-2020 23:03:07
 
METAR
K66R 
11nm E 
220355Z AUTO 02009G16KT 7SM RA OVC007 21/21 A2990 RMK AO2 P0010 T02140209
K3T5 
19nm NW 
220355Z AUTO 02013G19KT 10SM -DZ OVC008 22/22 A2992 RMK AO2 T02170217
KELA 
21nm E 
220355Z AUTO 04015G21KT 7SM +RA OVC007 22/21 A2988 RMK AO2 P0024 T02200212
TAF
KVCT 
48nm S 
211739Z 2118/2218 36014G24KT 5SM -SHRA BR OVC008 TEMPO 2118/2122 36022G32KT 2SM +SHRA OVC005 FM212200 36016G26KT 4SM SHRA BR OVC008 TEMPO 2122/2202 2SM +SHRA OVC005 FM220200 36018G28KT 4SM SHRA OVC005 TEMPO 2202/2206 34022G32KT 2SM +SHRA FM220600 01020G30KT 2SM +SHRA OVC004 FM221400 01015G22KT 4SM -SHRA OVC006
NOTAMs
Click for the latest NOTAMs
NOTAMs are issued by the DoD/FAA and will open in a separate window not controlled by AirNav.

 

 
 

Would you like to see your business listed on this page?

 If your business provides an interesting product or service to pilots, flight crews, aircraft, or users of the Tree Top Air Airport, you should consider listing it here.  To start the listing process, click on the button below
 
Add a business
 

Other Pages about Tree Top Air Airport

Update a link
 
Copyright © AirNav, LLC. All rights reserved. Privacy Policy  Contact